Walsenburg, Colorado
Current Conditions -  °F | °C
As of 7:26 AM on Sunday 23 Nov 2014 (Local Time) from KVTP Reporting Station
Moderate Fog Moderate Fog  
Wind Chill: 15°   Ceiling: 100
Heat Index: 21°   Visibility: 0mi
Dew Point: 19°   Wind: 5mph
Humidity: 93%   Direction: 70°ENE
Pressure: 29.72"   Gusts: NA
Location:  37.62°N, 104.78°W
Report Text: KVTP 231426Z AUTO 07004KT M1/4SM FZFG OVC001 M06/M07 A2972 RMK AO2
Loading
Personal Weather Stations






























Interactive Weather Map New forecast layout! Learn more

10-Day Weather Forecast

Advertisements
Track Severe Weather on mobile